Fort Lauderdale Executive Airport
KFXE : now visible

Airfield :











YOU CAN JOIN US ON...

 
LOGIN :

Register | Disclaimer

   EN    FR    IT 

 









Legend :    VFR   Marginal VFR   IFR   Intensive IFR   Very Intensive IFR
Visi :
Ceiling :
>= 8 km
>= 3000ft
5 to 8 km
1000 to 3000 ft
1500m to 5 km
500 to 1000 ft
800 to 1500m
200 to 500 ft
< 800m
< 200 ft
Symbols :   Thunderstorms  Fog  Heavy snow  Heavy precipitations  Wind > 20 kt







- Airport Elevation : 13 ft


KFXE - Fort Lauderdale Executive

CURRENT METAR :
  • 181653Z 14012G21KT 10SM SCT025 SCT030 BKN055 29/21 A3000 RMK AO2 SLP163 T02890206

EXPIRED METARs :
  • 181553Z 14014G21KT 10SM SCT030 BKN060 29/21 A3002 RMK AO2 SLP166 T02890206
  • 181453Z 13015G21KT 10SM FEW025 BKN060 BKN075 28/21 A3002 RMK AO2 SLP168 T02830211 51008

TAF KFXE
Valid from the 18 at 15:00 until the 19 at 12:00 UTC


181505Z 1815/1912 13015G25KT P6SM SCT025 SCT050
FM190300 14011KT P6SM SCT030 BKN060 BKN250
KZMA FIR / North America



MET'MAP, your aeronautical weather chart ! - Copyright ORBIFLY December 2007 - Disclaimer

ORBIFLY MET'MAP TEAM :

Programming & Development : Alexandra Zaïnal
Concept & Development : Baudouin d'Aumeries
Co-Development & Prog : Marc-Olivier Méhu
Technical & hardware support : Manuel Goepfert

Contact : metmap@orbifly.com




SOURCES & CREDITS :

   NOAA       Earth
Advisory